createdAt,value
2019-01-23T00:00:09.986Z,93.67
2019-01-23T00:02:42.990Z,78.10
2019-01-23T00:05:16.342Z,77.00
2019-01-23T00:07:47.685Z,87.60
2019-01-23T00:10:21.166Z,78.07
2019-01-23T00:12:52.425Z,87.20
2019-01-23T00:15:26.876Z,84.87
2019-01-23T00:17:59.230Z,80.87
2019-01-23T00:20:32.803Z,90.07
2019-01-23T00:23:04.059Z,61.40
2019-01-23T00:25:37.920Z,81.70
2019-01-23T00:28:09.123Z,67.00
2019-01-23T00:30:42.417Z,65.03
2019-01-23T00:33:13.588Z,57.57
2019-01-23T00:35:46.697Z,61.43
2019-01-23T00:38:17.907Z,64.10
2019-01-23T00:40:51.322Z,65.10
2019-01-23T00:43:22.652Z,59.70
2019-01-23T00:45:56.548Z,75.80
2019-01-23T00:48:27.913Z,67.70
2019-01-23T00:51:01.293Z,70.63
2019-01-23T00:53:32.614Z,70.00
2019-01-23T00:56:05.973Z,69.40
2019-01-23T00:58:37.394Z,59.57
2019-01-23T01:01:10.806Z,67.80
2019-01-23T01:03:42.202Z,67.33
2019-01-23T01:06:15.704Z,61.53
2019-01-23T01:08:47.514Z,55.90
2019-01-23T01:11:21.075Z,53.93
2019-01-23T01:13:52.356Z,57.60
2019-01-23T01:16:25.673Z,59.60
2019-01-23T01:18:57.958Z,57.87
2019-01-23T01:21:31.237Z,49.50
2019-01-23T01:24:03.032Z,55.57
2019-01-23T01:26:37.256Z,57.70
2019-01-23T01:29:08.644Z,47.67
2019-01-23T01:31:42.099Z,53.67
2019-01-23T01:34:13.464Z,58.73
2019-01-23T01:36:46.663Z,51.23
2019-01-23T01:39:17.898Z,51.17
2019-01-23T01:41:52.883Z,45.47
2019-01-23T01:44:27.820Z,43.90
2019-01-23T01:47:01.282Z,43.20
2019-01-23T01:49:34.926Z,56.20
2019-01-23T01:52:07.046Z,43.60
2019-01-23T01:54:42.337Z,45.37
2019-01-23T01:57:14.487Z,46.70
2019-01-23T01:59:49.875Z,52.10
2019-01-23T02:02:22.038Z,49.20
2019-01-23T02:04:54.385Z,49.43
2019-01-23T02:07:26.840Z,45.60
2019-01-23T02:09:59.247Z,51.07
2019-01-23T02:12:31.609Z,53.57
2019-01-23T02:15:03.926Z,47.30
2019-01-23T02:17:36.246Z,58.57
2019-01-23T02:20:09.114Z,75.70
2019-01-23T02:22:42.632Z,52.87
2019-01-23T02:25:14.190Z,56.30
2019-01-23T02:27:48.069Z,53.53
2019-01-23T02:30:20.367Z,50.30
2019-01-23T02:32:53.885Z,50.03
2019-01-23T02:35:25.091Z,44.33
2019-01-23T02:37:58.589Z,52.00
2019-01-23T02:40:29.859Z,48.07
2019-01-23T02:43:03.010Z,41.00
2019-01-23T02:45:37.916Z,48.00
2019-01-23T02:48:11.297Z,40.83
2019-01-23T02:50:43.629Z,41.80
2019-01-23T02:53:16.007Z,40.50
2019-01-23T02:55:48.265Z,54.47
2019-01-23T02:58:25.518Z,50.17
2019-01-23T03:00:59.943Z,45.70
2019-01-23T03:03:33.409Z,42.67
2019-01-23T03:06:05.427Z,48.23
2019-01-23T03:08:38.861Z,50.87
2019-01-23T03:11:10.240Z,55.20
2019-01-23T03:13:45.461Z,43.03
2019-01-23T03:16:16.420Z,62.37
2019-01-23T03:18:49.650Z,52.87
2019-01-23T03:21:21.122Z,58.83
2019-01-23T03:23:54.437Z,46.60
2019-01-23T03:26:25.592Z,52.40
2019-01-23T03:28:59.009Z,47.33
2019-01-23T03:31:30.244Z,47.30
2019-01-23T03:34:04.030Z,54.63
2019-01-23T03:36:35.554Z,53.90
2019-01-23T03:39:09.133Z,51.87
2019-01-23T03:41:40.519Z,57.20
2019-01-23T03:44:14.988Z,47.73
2019-01-23T03:46:49.178Z,45.83
2019-01-23T03:49:23.056Z,60.67
2019-01-23T03:51:54.234Z,59.33
2019-01-23T03:54:27.811Z,56.67
2019-01-23T03:56:58.945Z,48.67
2019-01-23T03:59:32.494Z,55.77
2019-01-23T04:02:04.821Z,54.73
2019-01-23T04:04:38.730Z,50.70
2019-01-23T04:07:09.878Z,57.27
2019-01-23T04:09:44.930Z,57.63
2019-01-23T04:12:16.062Z,56.80
2019-01-23T04:14:50.870Z,52.37
2019-01-23T04:17:23.773Z,51.57
2019-01-23T04:19:57.193Z,46.60
2019-01-23T04:22:28.401Z,42.87
2019-01-23T04:25:12.853Z,56.90
2019-01-23T04:27:45.249Z,56.73
2019-01-23T04:30:21.875Z,48.60
2019-01-23T04:33:00.589Z,49.67
2019-01-23T04:35:33.610Z,42.47
2019-01-23T04:38:04.870Z,42.70
2019-01-23T04:40:38.394Z,46.30
2019-01-23T04:43:09.626Z,38.27
2019-01-23T04:48:45.643Z,39.70
2019-01-23T04:51:51.816Z,47.03
2019-01-23T04:54:45.195Z,46.37
2019-01-23T04:57:17.642Z,37.40
2019-01-23T05:00:15.222Z,40.90
2019-01-23T05:02:53.876Z,36.13
2019-01-23T05:05:26.117Z,31.10
2019-01-23T05:07:58.422Z,40.77
2019-01-23T05:10:30.662Z,33.20
2019-01-23T05:13:02.724Z,41.87
2019-01-23T05:15:35.071Z,44.90
2019-01-23T05:18:07.466Z,42.00
2019-01-23T05:20:39.840Z,35.73
2019-01-23T05:23:12.225Z,39.93
2019-01-23T05:25:44.479Z,41.83
2019-01-23T05:28:16.775Z,45.43
2019-01-23T05:30:49.238Z,37.70
2019-01-23T05:33:21.522Z,43.00
2019-01-23T05:35:53.867Z,32.47
2019-01-23T05:38:26.248Z,36.80
2019-01-23T05:40:58.407Z,36.37
2019-01-23T05:43:30.843Z,49.13
2019-01-23T05:46:05.419Z,41.37
2019-01-23T05:48:38.856Z,48.73
2019-01-23T05:51:10.924Z,41.23
2019-01-23T05:53:43.327Z,46.07
2019-01-23T05:56:17.763Z,52.30
2019-01-23T05:58:51.166Z,47.07
2019-01-23T06:01:22.606Z,39.77
2019-01-23T06:03:55.957Z,41.63
2019-01-23T06:06:27.037Z,53.10
2019-01-23T06:09:00.390Z,39.63
2019-01-23T06:11:32.081Z,46.57
2019-01-23T06:14:05.657Z,48.10
2019-01-23T06:16:37.132Z,56.67
2019-01-23T06:19:10.729Z,43.83
2019-01-23T06:21:42.182Z,43.23
2019-01-23T06:24:15.747Z,45.87
2019-01-23T06:26:48.065Z,47.57
2019-01-23T06:29:21.540Z,47.87
2019-01-23T06:31:53.735Z,47.73
2019-01-23T06:34:26.145Z,59.17
2019-01-23T06:36:58.558Z,49.83
2019-01-23T06:39:31.194Z,45.67
2019-01-23T06:42:03.309Z,59.47
2019-01-23T06:44:35.701Z,58.97
2019-01-23T06:47:10.151Z,47.93
2019-01-23T06:49:43.284Z,51.40
2019-01-23T06:52:15.660Z,41.37
2019-01-23T06:54:48.097Z,46.43
2019-01-23T06:57:22.475Z,47.43
2019-01-23T06:59:55.922Z,50.40
2019-01-23T07:02:27.337Z,44.00
2019-01-23T07:05:00.867Z,50.30
2019-01-23T07:07:32.187Z,35.50
2019-01-23T07:10:06.935Z,38.73
2019-01-23T07:12:40.524Z,40.90
2019-01-23T07:15:14.101Z,33.77
2019-01-23T07:17:45.503Z,48.53
2019-01-23T07:20:22.738Z,46.17
2019-01-23T07:22:53.958Z,47.23
2019-01-23T07:25:27.870Z,43.83
2019-01-23T07:27:59.230Z,41.03
2019-01-23T07:30:42.534Z,43.23
2019-01-23T07:33:13.964Z,40.13
2019-01-23T07:35:47.127Z,41.73
2019-01-23T07:38:18.570Z,34.47
2019-01-23T07:40:52.464Z,29.67
2019-01-23T07:43:23.777Z,40.40
2019-01-23T07:45:58.328Z,34.60
2019-01-23T07:48:32.807Z,25.30
2019-01-23T07:51:29.534Z,36.90
2019-01-23T07:54:02.062Z,31.00
2019-01-23T07:56:34.686Z,32.17
2019-01-23T07:59:07.178Z,34.13
2019-01-23T08:01:39.500Z,29.40
2019-01-23T08:04:13.758Z,33.43
2019-01-23T08:06:47.065Z,25.27
2019-01-23T08:09:18.429Z,24.83
2019-01-23T08:11:51.831Z,27.00
2019-01-23T08:14:22.983Z,38.97
2019-01-23T08:16:56.350Z,24.07
2019-01-23T08:19:27.673Z,34.90
2019-01-23T08:22:01.107Z,45.30
2019-01-23T08:24:33.659Z,25.57
2019-01-23T08:27:08.123Z,29.40
2019-01-23T08:29:41.315Z,29.53
2019-01-23T08:32:12.611Z,36.30
2019-01-23T08:34:46.032Z,32.97
2019-01-23T08:37:17.229Z,28.83
2019-01-23T08:39:50.740Z,35.13
2019-01-23T08:42:21.908Z,29.00
2019-01-23T08:44:55.343Z,25.10
2019-01-23T08:47:27.157Z,24.93
2019-01-23T08:50:00.578Z,21.60
2019-01-23T08:52:31.853Z,28.37
2019-01-23T08:55:05.562Z,26.47
2019-01-23T08:57:36.894Z,27.83
2019-01-23T09:00:10.328Z,29.10
2019-01-23T09:02:41.684Z,28.13
2019-01-23T09:05:15.458Z,22.63
2019-01-23T09:07:46.769Z,29.00
2019-01-23T09:10:20.859Z,30.80
2019-01-23T09:12:51.972Z,26.60
2019-01-23T09:15:26.837Z,21.93
2019-01-23T09:18:01.260Z,19.33
2019-01-23T09:20:34.636Z,20.73
2019-01-23T09:23:05.868Z,18.77
2019-01-23T09:25:39.366Z,18.93
2019-01-23T09:28:10.827Z,20.80
2019-01-23T09:30:52.717Z,19.87
2019-01-23T09:33:47.372Z,22.50
2019-01-23T09:36:42.966Z,20.27
2019-01-23T09:39:32.866Z,25.23
2019-01-23T09:42:10.668Z,21.87
2019-01-23T09:45:10.012Z,20.40
2019-01-23T09:47:48.737Z,18.50
2019-01-23T09:50:38.921Z,17.10
2019-01-23T09:53:23.421Z,18.70
2019-01-23T09:55:57.849Z,18.50
2019-01-23T09:58:31.172Z,18.80
2019-01-23T10:01:02.469Z,25.60
2019-01-23T10:03:35.907Z,22.13
2019-01-23T10:06:07.379Z,18.07
2019-01-23T10:08:40.694Z,25.73
2019-01-23T10:11:12.280Z,20.70
2019-01-23T10:13:45.636Z,29.43
2019-01-23T10:16:18.054Z,25.33
2019-01-23T10:18:55.965Z,25.33
2019-01-23T10:21:24.285Z,25.00
2019-01-23T10:23:57.837Z,98.30
2019-01-23T10:26:29.273Z,30.63
2019-01-23T10:29:02.759Z,33.30
2019-01-23T10:31:34.963Z,25.70
2019-01-23T10:34:08.320Z,26.27
2019-01-23T10:36:40.536Z,31.43
2019-01-23T10:39:13.940Z,28.07
2019-01-23T10:41:45.204Z,33.60
2019-01-23T10:44:18.428Z,29.20
2019-01-23T10:46:49.707Z,31.43
2019-01-23T10:49:23.322Z,34.50
2019-01-23T10:51:54.578Z,31.97
2019-01-23T10:54:27.922Z,36.90
2019-01-23T10:56:59.465Z,30.93
2019-01-23T10:59:32.798Z,36.53
2019-01-23T11:02:04.341Z,41.57
2019-01-23T11:04:37.748Z,37.53
2019-01-23T11:07:08.994Z,37.70
2019-01-23T11:09:42.106Z,38.70
2019-01-23T11:12:13.390Z,43.40
2019-01-23T11:14:46.808Z,32.33
2019-01-23T11:17:18.140Z,34.30
2019-01-23T11:19:51.781Z,41.40
2019-01-23T11:22:23.108Z,46.40
2019-01-23T11:24:56.580Z,39.80
2019-01-23T11:27:27.972Z,42.80
2019-01-23T11:30:01.298Z,38.60
2019-01-23T11:32:33.944Z,34.43
2019-01-23T11:35:07.394Z,35.13
2019-01-23T11:37:38.674Z,44.00
2019-01-23T11:40:14.566Z,38.10
2019-01-23T11:42:45.690Z,37.40
2019-01-23T11:45:19.038Z,34.47
2019-01-23T11:47:50.465Z,40.93
2019-01-23T11:50:23.939Z,35.27
2019-01-23T11:52:55.379Z,39.47
2019-01-23T11:55:28.957Z,42.27
2019-01-23T11:58:00.399Z,50.53
2019-01-23T12:00:35.512Z,38.47
2019-01-23T12:03:06.992Z,50.10
2019-01-23T12:05:40.390Z,47.03
2019-01-23T12:08:11.808Z,50.10
2019-01-23T12:10:46.569Z,51.83
2019-01-23T12:13:17.759Z,47.73
2019-01-23T12:15:52.182Z,44.37
2019-01-23T12:18:25.028Z,57.20
2019-01-23T12:20:58.545Z,62.00
2019-01-23T12:23:30.018Z,53.47
2019-01-23T12:26:03.474Z,51.57
2019-01-23T12:28:34.888Z,41.67
2019-01-23T12:31:08.432Z,50.70
2019-01-23T12:33:39.706Z,55.50
2019-01-23T12:36:12.931Z,63.50
2019-01-23T12:38:44.242Z,44.83
2019-01-23T12:41:18.747Z,47.60
2019-01-23T12:43:53.421Z,45.20
2019-01-23T12:46:26.783Z,43.50
2019-01-23T12:48:58.208Z,41.40
2019-01-23T12:51:34.421Z,34.30
2019-01-23T12:54:05.846Z,37.20
2019-01-23T12:56:39.439Z,32.60
2019-01-23T12:59:10.699Z,22.80
2019-01-23T13:01:44.198Z,31.00
2019-01-23T13:04:15.542Z,19.37
2019-01-23T13:06:48.973Z,23.37
2019-01-23T13:09:20.565Z,18.53
2019-01-23T13:11:54.047Z,32.30
2019-01-23T13:14:25.400Z,43.23
2019-01-23T13:17:21.869Z,31.57
2019-01-23T13:19:54.166Z,44.20
2019-01-23T13:22:26.396Z,37.33
2019-01-23T13:24:58.851Z,38.50
2019-01-23T13:27:31.724Z,44.10
2019-01-23T13:30:03.770Z,44.03
2019-01-23T13:32:35.762Z,40.80
2019-01-23T13:35:09.168Z,40.53
2019-01-23T13:37:41.554Z,45.03
2019-01-23T13:40:15.921Z,35.70
2019-01-23T13:42:48.194Z,42.20
2019-01-23T13:45:21.365Z,43.97
2019-01-23T13:47:53.704Z,44.17
2019-01-23T13:50:25.040Z,43.83
2019-01-23T13:52:58.486Z,41.20
2019-01-23T13:55:29.887Z,38.00
2019-01-23T13:58:03.408Z,45.40
2019-01-23T14:00:36.814Z,58.23
2019-01-23T14:03:10.211Z,53.20
2019-01-23T14:05:41.190Z,58.53
2019-01-23T14:08:14.387Z,52.70
2019-01-23T14:10:46.560Z,57.40
2019-01-23T14:13:19.938Z,54.43
2019-01-23T14:15:50.938Z,62.23
2019-01-23T14:18:24.199Z,52.13
2019-01-23T14:20:56.356Z,65.90
2019-01-23T14:23:29.925Z,56.07
2019-01-23T14:26:01.129Z,63.03
2019-01-23T14:28:34.986Z,70.97
2019-01-23T14:31:06.929Z,64.70
2019-01-23T14:33:40.477Z,55.23
2019-01-23T14:36:11.614Z,64.83
2019-01-23T14:38:44.800Z,69.70
2019-01-23T14:41:15.785Z,64.00
2019-01-23T14:43:49.147Z,69.20
2019-01-23T14:46:20.326Z,52.60
2019-01-23T14:48:53.726Z,62.97
2019-01-23T14:51:24.860Z,78.73
2019-01-23T14:53:58.231Z,61.57
2019-01-23T14:56:34.060Z,58.63
2019-01-23T14:59:07.309Z,56.33
2019-01-23T15:01:38.531Z,64.53
2019-01-23T15:04:11.588Z,70.10
2019-01-23T15:06:42.797Z,64.23
2019-01-23T15:09:16.126Z,73.80
2019-01-23T15:11:47.173Z,63.80
2019-01-23T15:14:20.469Z,73.43
2019-01-23T15:16:51.733Z,70.40
2019-01-23T15:19:25.866Z,61.33
2019-01-23T15:21:57.901Z,78.07
2019-01-23T15:24:31.188Z,74.90
2019-01-23T15:27:02.612Z,68.63
2019-01-23T15:29:36.092Z,83.67
2019-01-23T15:32:07.121Z,62.03
2019-01-23T15:34:40.528Z,70.07
2019-01-23T15:37:11.653Z,70.70
2019-01-23T15:39:44.987Z,75.50
2019-01-23T15:42:20.651Z,92.37
2019-01-23T15:44:54.943Z,72.60
2019-01-23T15:47:26.022Z,81.87
2019-01-23T15:49:59.770Z,88.77
2019-01-23T15:52:30.731Z,93.63
2019-01-23T15:55:04.493Z,85.97
2019-01-23T15:57:35.658Z,82.37
2019-01-23T16:00:12.629Z,77.90
2019-01-23T16:02:43.612Z,91.03
2019-01-23T16:05:17.461Z,94.77
2019-01-23T16:07:48.442Z,88.50
2019-01-23T16:10:22.698Z,89.70
2019-01-23T16:12:53.765Z,87.20
2019-01-23T16:15:28.766Z,82.37
2019-01-23T16:18:00.158Z,97.40
2019-01-23T16:20:34.439Z,110.37
2019-01-23T16:23:06.728Z,104.87
2019-01-23T16:25:40.907Z,107.97
2019-01-23T16:28:11.920Z,101.20
2019-01-23T16:30:45.807Z,99.57
2019-01-23T16:33:17.050Z,128.80
2019-01-23T16:35:50.523Z,106.63
2019-01-23T16:38:46.743Z,90.53
2019-01-23T16:41:20.098Z,94.33
2019-01-23T16:43:51.380Z,105.67
2019-01-23T16:46:24.700Z,157.77
2019-01-23T16:48:56.007Z,109.13
2019-01-23T16:51:29.724Z,181.07
2019-01-23T16:54:01.376Z,192.43
2019-01-23T16:56:35.137Z,262.30
2019-01-23T16:59:06.966Z,134.03
2019-01-23T17:01:40.327Z,145.17
2019-01-23T17:04:11.948Z,153.57
2019-01-23T17:06:45.441Z,155.80
2019-01-23T17:09:17.093Z,135.23
2019-01-23T17:11:50.364Z,127.93
2019-01-23T17:14:21.664Z,121.97
2019-01-23T17:16:54.965Z,127.60
2019-01-23T17:19:26.495Z,115.27
2019-01-23T17:22:00.081Z,135.17
2019-01-23T17:24:31.275Z,120.83
2019-01-23T17:27:04.675Z,119.87
2019-01-23T17:29:35.961Z,107.70
2019-01-23T17:32:09.268Z,112.90
2019-01-23T17:34:40.529Z,107.07
2019-01-23T17:37:13.910Z,110.73
2019-01-23T17:39:45.324Z,109.00
2019-01-23T17:42:18.622Z,100.30
2019-01-23T17:44:50.178Z,98.80
2019-01-23T17:47:24.110Z,95.20
2019-01-23T17:49:55.526Z,137.83
2019-01-23T17:52:28.998Z,114.37
2019-01-23T17:55:00.240Z,120.60
2019-01-23T17:57:33.583Z,122.47
2019-01-23T18:00:06.845Z,109.10
2019-01-23T18:02:40.413Z,104.53
2019-01-23T18:05:11.737Z,108.80
2019-01-23T18:07:45.240Z,114.00
2019-01-23T18:10:16.856Z,126.63
2019-01-23T18:12:50.158Z,130.03
2019-01-23T18:15:22.453Z,112.80
2019-01-23T18:17:57.983Z,110.57
2019-01-23T18:20:32.403Z,108.40
2019-01-23T18:23:05.620Z,117.53
2019-01-23T18:25:37.093Z,116.77
2019-01-23T18:28:10.366Z,112.93
2019-01-23T18:31:00.451Z,121.43
2019-01-23T18:33:36.431Z,127.30
2019-01-23T18:36:29.423Z,115.30
2019-01-23T18:39:30.924Z,100.17
2019-01-23T18:42:09.615Z,95.03
2019-01-23T18:45:02.100Z,122.87
2019-01-23T18:48:13.021Z,117.60
2019-01-23T18:51:03.150Z,110.40
2019-01-23T18:53:35.404Z,104.50
2019-01-23T18:56:07.878Z,109.40
2019-01-23T18:58:42.525Z,107.93
2019-01-23T19:01:16.129Z,98.70
2019-01-23T19:03:47.405Z,98.33
2019-01-23T19:06:20.799Z,108.50
2019-01-23T19:08:53.266Z,102.17
2019-01-23T19:11:26.614Z,118.73
2019-01-23T19:13:58.267Z,113.40
2019-01-23T19:16:31.724Z,108.43
2019-01-23T19:19:02.953Z,107.30
2019-01-23T19:21:36.471Z,111.20
2019-01-23T19:24:07.764Z,105.63
2019-01-23T19:26:41.010Z,99.67
2019-01-23T19:29:13.720Z,102.60
2019-01-23T19:31:46.195Z,161.97
2019-01-23T19:34:18.423Z,134.27
2019-01-23T19:36:51.726Z,126.27
2019-01-23T19:39:23.980Z,121.27
2019-01-23T19:41:56.370Z,104.50
2019-01-23T19:44:28.701Z,101.37
2019-01-23T19:47:01.133Z,106.07
2019-01-23T19:49:33.637Z,105.67
2019-01-23T19:52:06.183Z,104.57
2019-01-23T19:54:38.367Z,93.80
2019-01-23T19:57:11.355Z,101.97
2019-01-23T19:59:43.909Z,107.47
2019-01-23T20:02:16.195Z,108.60
2019-01-23T20:04:48.420Z,103.17
2019-01-23T20:07:20.747Z,103.17
2019-01-23T20:09:53.334Z,105.27
2019-01-23T20:12:25.627Z,92.33
2019-01-23T20:14:58.170Z,109.13
2019-01-23T20:17:30.474Z,94.33
2019-01-23T20:20:02.738Z,101.03
2019-01-23T20:22:35.056Z,112.73
2019-01-23T20:25:08.260Z,104.80
2019-01-23T20:27:40.607Z,104.63
2019-01-23T20:30:34.809Z,103.47
2019-01-23T20:33:07.241Z,94.43
2019-01-23T20:35:39.485Z,115.27
2019-01-23T20:38:11.798Z,97.10
2019-01-23T20:40:45.961Z,91.23
2019-01-23T20:43:19.365Z,87.03
2019-01-23T20:45:50.659Z,108.47
2019-01-23T20:48:23.957Z,94.47
2019-01-23T20:50:55.385Z,98.83
2019-01-23T20:53:28.725Z,102.53
2019-01-23T20:55:59.925Z,106.63
2019-01-23T20:58:33.491Z,116.80
2019-01-23T21:01:06.158Z,115.07
2019-01-23T21:03:38.611Z,96.10
2019-01-23T21:06:10.862Z,104.83
2019-01-23T21:08:42.987Z,106.13
2019-01-23T21:11:14.924Z,120.00
2019-01-23T21:13:47.154Z,113.60
2019-01-23T21:16:19.561Z,104.03
2019-01-23T21:18:51.897Z,111.50
2019-01-23T21:21:24.259Z,103.90
2019-01-23T21:23:56.534Z,112.33
2019-01-23T21:26:28.932Z,107.27
2019-01-23T21:29:01.483Z,102.47
2019-01-23T21:31:33.974Z,103.10
2019-01-23T21:34:06.554Z,131.37
2019-01-23T21:36:38.940Z,131.10
2019-01-23T21:39:11.685Z,100.70
2019-01-23T21:41:45.856Z,104.80
2019-01-23T21:44:19.142Z,114.87
2019-01-23T21:46:50.657Z,106.10
2019-01-23T21:49:24.070Z,104.10
2019-01-23T21:51:55.218Z,106.73
2019-01-23T21:54:29.678Z,109.70
2019-01-23T21:57:01.052Z,115.30
2019-01-23T21:59:34.459Z,114.90
2019-01-23T22:02:06.761Z,103.03
2019-01-23T22:04:39.321Z,101.70
2019-01-23T22:07:11.431Z,107.50
2019-01-23T22:09:43.940Z,100.40
2019-01-23T22:12:16.028Z,117.47
2019-01-23T22:14:48.399Z,113.47
2019-01-23T22:17:20.585Z,115.23
2019-01-23T22:19:52.860Z,93.30
2019-01-23T22:22:25.127Z,100.73
2019-01-23T22:24:57.311Z,76.57
2019-01-23T22:27:29.472Z,70.00
2019-01-23T22:30:02.787Z,71.67
2019-01-23T22:32:35.078Z,61.60
2019-01-23T22:35:07.572Z,68.57
2019-01-23T22:37:39.749Z,74.80
2019-01-23T22:40:12.350Z,74.23
2019-01-23T22:42:46.417Z,63.00
2019-01-23T22:45:20.211Z,58.60
2019-01-23T22:47:51.657Z,67.67
2019-01-23T22:50:25.947Z,73.90
2019-01-23T22:52:56.978Z,71.10
2019-01-23T22:55:30.202Z,63.57
2019-01-23T22:58:01.440Z,63.83
2019-01-23T23:00:45.098Z,68.87
2019-01-23T23:03:19.283Z,62.47
2019-01-23T23:05:51.639Z,92.13
2019-01-23T23:08:23.945Z,71.50
2019-01-23T23:10:56.097Z,71.23
2019-01-23T23:13:28.476Z,93.43
2019-01-23T23:16:00.770Z,102.10
2019-01-23T23:18:33.276Z,97.40
2019-01-23T23:21:05.844Z,85.17
2019-01-23T23:23:38.057Z,86.90
2019-01-23T23:26:10.269Z,82.73
2019-01-23T23:28:42.714Z,82.93
2019-01-23T23:31:14.824Z,94.83
2019-01-23T23:33:47.071Z,81.57
2019-01-23T23:36:19.316Z,99.33
2019-01-23T23:38:51.597Z,87.00
2019-01-23T23:41:23.930Z,108.63
2019-01-23T23:43:58.093Z,98.70
2019-01-23T23:46:31.341Z,104.20
2019-01-23T23:49:02.688Z,100.83
2019-01-23T23:51:37.361Z,105.93
2019-01-23T23:54:11.502Z,111.07
2019-01-23T23:56:44.722Z,107.27
2019-01-23T23:59:15.885Z,90.47
